createdAt,value
2018-04-15T03:00:57.762Z,9.25
2018-04-15T03:01:58.257Z,9.22
2018-04-15T03:02:57.988Z,9.21
2018-04-15T03:03:58.285Z,9.21
2018-04-15T03:04:58.334Z,9.19
2018-04-15T03:05:58.511Z,9.18
2018-04-15T03:06:58.661Z,9.22
2018-04-15T03:07:58.881Z,9.10
2018-04-15T03:08:59.832Z,9.16
2018-04-15T03:09:59.214Z,9.14
2018-04-15T03:10:59.365Z,9.06
2018-04-15T03:11:59.497Z,9.06
2018-04-15T03:12:59.621Z,9.00
2018-04-15T03:13:59.815Z,8.97
2018-04-15T03:14:59.952Z,8.91
2018-04-15T03:16:00.130Z,8.92
2018-04-15T03:17:00.282Z,9.00
2018-04-15T03:18:00.479Z,8.81
2018-04-15T03:19:00.639Z,8.91
2018-04-15T03:20:00.751Z,8.97
2018-04-15T03:21:00.973Z,8.87
2018-04-15T03:22:01.034Z,8.85
2018-04-15T03:23:01.222Z,8.97
2018-04-15T03:24:01.390Z,8.94
2018-04-15T03:25:01.576Z,8.92
2018-04-15T03:26:01.772Z,8.95
2018-04-15T03:27:01.853Z,8.92
2018-04-15T03:28:02.016Z,8.89
2018-04-15T03:29:02.184Z,8.94
2018-04-15T03:30:02.337Z,8.81
2018-04-15T03:31:02.474Z,8.89
2018-04-15T03:32:02.642Z,8.99
2018-04-15T03:33:02.777Z,8.88
2018-04-15T03:34:02.907Z,8.78
2018-04-15T03:35:03.079Z,8.79
2018-04-15T03:36:03.310Z,8.79
2018-04-15T03:37:03.432Z,8.81
2018-04-15T03:38:03.610Z,8.79
2018-04-15T03:39:03.734Z,8.74
2018-04-15T03:40:03.912Z,8.76
2018-04-15T03:41:04.012Z,8.81
2018-04-15T03:42:04.264Z,8.67
2018-04-15T03:43:04.385Z,8.76
2018-04-15T03:44:04.487Z,8.71
2018-04-15T03:45:04.667Z,8.74
2018-04-15T03:46:04.871Z,8.73
2018-04-15T03:47:04.964Z,8.71
2018-04-15T03:48:05.185Z,8.76
2018-04-15T03:49:05.281Z,8.69
2018-04-15T03:50:05.479Z,8.66
2018-04-15T03:51:05.647Z,8.71
2018-04-15T03:52:05.824Z,8.63
2018-04-15T03:53:05.999Z,8.69
2018-04-15T03:54:06.155Z,8.70
2018-04-15T03:55:06.308Z,8.71
2018-04-15T03:56:06.496Z,8.76
2018-04-15T03:57:06.642Z,8.63
2018-04-15T03:58:06.777Z,8.64
2018-04-15T03:59:06.955Z,8.58
2018-04-15T04:00:07.290Z,8.66
2018-04-15T04:01:07.340Z,8.61
2018-04-15T04:02:07.520Z,8.64
2018-04-15T04:03:07.619Z,8.55
2018-04-15T04:04:07.869Z,8.52
2018-04-15T04:05:07.971Z,8.52
2018-04-15T04:06:08.160Z,8.53
2018-04-15T04:07:08.329Z,8.56
2018-04-15T04:08:08.469Z,8.51
2018-04-15T04:09:08.604Z,8.46
2018-04-15T04:10:08.749Z,8.49
2018-04-15T04:11:08.926Z,8.48
2018-04-15T04:12:09.089Z,8.46
2018-04-15T04:13:09.283Z,8.45
2018-04-15T04:14:09.448Z,8.42
2018-04-15T04:15:09.577Z,8.45
2018-04-15T04:16:09.811Z,8.46
2018-04-15T04:17:09.887Z,8.37
2018-04-15T04:18:10.047Z,8.51
2018-04-15T04:19:10.247Z,8.48
2018-04-15T04:20:10.326Z,8.49
2018-04-15T04:21:10.527Z,8.49
2018-04-15T04:22:10.781Z,8.49
2018-04-15T04:23:10.932Z,8.37
2018-04-15T04:24:10.993Z,8.41
2018-04-15T04:25:11.188Z,8.37
2018-04-15T04:26:11.509Z,8.34
2018-04-15T04:27:11.565Z,8.34
2018-04-15T04:28:11.688Z,8.33
2018-04-15T04:29:11.880Z,8.34
2018-04-15T04:30:12.064Z,8.36
2018-04-15T04:31:12.590Z,8.36
2018-04-15T04:32:12.327Z,8.41
2018-04-15T04:33:12.530Z,8.36
2018-04-15T04:34:12.683Z,8.44
2018-04-15T04:35:12.794Z,8.38
2018-04-15T04:36:12.965Z,8.31
2018-04-15T04:37:13.098Z,8.37
2018-04-15T04:38:13.318Z,8.44
2018-04-15T04:39:13.481Z,8.51
2018-04-15T04:40:13.595Z,8.46
2018-04-15T04:41:13.717Z,8.42
2018-04-15T04:42:13.889Z,8.44
2018-04-15T04:43:14.011Z,8.48
2018-04-15T04:44:14.207Z,8.49
2018-04-15T04:45:14.371Z,8.48
2018-04-15T04:46:14.530Z,8.61
2018-04-15T04:47:14.652Z,8.61
2018-04-15T04:48:14.786Z,8.67
2018-04-15T04:49:14.989Z,8.71
2018-04-15T04:50:15.267Z,8.69
2018-04-15T04:51:15.273Z,8.81
2018-04-15T04:52:15.467Z,8.82
2018-04-15T04:53:15.709Z,8.82
2018-04-15T04:54:15.857Z,8.88
2018-04-15T04:55:15.961Z,8.92
2018-04-15T04:56:16.141Z,8.84
2018-04-15T04:57:16.259Z,8.74
2018-04-15T04:58:16.409Z,8.84
2018-04-15T04:59:16.628Z,8.88
2018-04-15T05:00:16.784Z,8.82
2018-04-15T05:01:16.900Z,8.81
2018-04-15T05:02:17.086Z,8.91
2018-04-15T05:03:17.257Z,8.97
2018-04-15T05:04:17.370Z,8.81
2018-04-15T05:05:17.553Z,8.85
2018-04-15T05:06:17.704Z,8.87
2018-04-15T05:07:17.800Z,8.97
2018-04-15T05:08:18.029Z,9.00
2018-04-15T05:09:18.158Z,9.06
2018-04-15T05:10:18.363Z,9.02
2018-04-15T05:11:18.516Z,9.03
2018-04-15T05:12:18.698Z,9.04
2018-04-15T05:13:18.824Z,9.04
2018-04-15T05:14:18.978Z,9.22
2018-04-15T05:15:19.098Z,9.18
2018-04-15T05:16:19.256Z,9.08
2018-04-15T05:17:19.420Z,9.13
2018-04-15T05:18:19.578Z,9.08
2018-04-15T05:19:19.774Z,9.10
2018-04-15T05:20:19.925Z,9.19
2018-04-15T05:21:20.034Z,9.25
2018-04-15T05:22:20.254Z,9.36
2018-04-15T05:23:20.428Z,9.39
2018-04-15T05:24:20.565Z,9.47
2018-04-15T05:25:20.703Z,9.40
2018-04-15T05:26:20.962Z,9.55
2018-04-15T05:27:21.149Z,9.55
2018-04-15T05:28:21.220Z,9.54
2018-04-15T05:29:21.437Z,9.58
2018-04-15T05:30:21.608Z,9.69
2018-04-15T05:31:21.741Z,9.74
2018-04-15T05:32:21.879Z,9.74
2018-04-15T05:33:22.039Z,9.89
2018-04-15T05:34:22.273Z,9.94
2018-04-15T05:35:22.443Z,10.09
2018-04-15T05:36:22.580Z,10.16
2018-04-15T05:37:22.726Z,10.23
2018-04-15T05:38:22.912Z,10.38
2018-04-15T05:39:23.025Z,10.49
2018-04-15T05:40:23.234Z,10.53
2018-04-15T05:41:23.371Z,10.76
2018-04-15T05:42:23.557Z,10.69
2018-04-15T05:43:23.732Z,10.75
2018-04-15T05:44:23.866Z,10.92
2018-04-15T05:45:24.071Z,11.02
2018-04-15T05:46:24.210Z,11.11
2018-04-15T05:47:24.367Z,11.07
2018-04-15T05:48:24.487Z,11.15
2018-04-15T05:49:24.702Z,11.14
2018-04-15T05:50:24.821Z,11.32
2018-04-15T05:51:24.964Z,11.27
2018-04-15T05:52:25.186Z,11.33
2018-04-15T05:53:25.292Z,11.36
2018-04-15T05:54:25.556Z,11.37
2018-04-15T05:55:25.670Z,11.41
2018-04-15T05:56:25.798Z,11.50
2018-04-15T05:57:25.990Z,11.59
2018-04-15T05:58:26.349Z,11.60
2018-04-15T05:59:26.554Z,11.60
2018-04-15T06:00:26.516Z,11.54
2018-04-15T06:01:26.704Z,11.57
2018-04-15T06:02:26.794Z,11.59
2018-04-15T06:03:26.988Z,11.52
2018-04-15T06:04:27.113Z,11.52
2018-04-15T06:05:27.980Z,11.62
2018-04-15T06:06:27.512Z,11.57
2018-04-15T06:07:27.684Z,11.62
2018-04-15T06:08:27.822Z,11.66
2018-04-15T06:09:28.043Z,11.70
2018-04-15T06:10:28.160Z,11.70
2018-04-15T06:11:28.297Z,11.86
2018-04-15T06:12:28.456Z,11.94
2018-04-15T06:13:28.658Z,11.97
2018-04-15T06:14:28.790Z,11.87
2018-04-15T06:15:28.959Z,12.07
2018-04-15T06:16:29.058Z,12.12
2018-04-15T06:17:29.329Z,12.04
2018-04-15T06:18:29.419Z,12.15
2018-04-15T06:19:29.616Z,12.21
2018-04-15T06:20:29.813Z,12.18
2018-04-15T06:21:29.951Z,12.28
2018-04-15T06:22:30.073Z,12.29
2018-04-15T06:23:30.292Z,12.28
2018-04-15T06:24:30.455Z,12.29
2018-04-15T06:25:30.617Z,12.27
2018-04-15T06:26:30.783Z,12.36
2018-04-15T06:27:30.941Z,12.28
2018-04-15T06:28:31.101Z,12.37
2018-04-15T06:29:31.255Z,12.39
2018-04-15T06:30:31.402Z,12.43
2018-04-15T06:31:31.554Z,12.42
2018-04-15T06:32:31.748Z,12.54
2018-04-15T06:33:31.896Z,12.67
2018-04-15T06:34:32.080Z,12.67
2018-04-15T06:35:32.193Z,12.73
2018-04-15T06:36:32.343Z,12.79
2018-04-15T06:37:32.484Z,12.94
2018-04-15T06:38:32.694Z,13.12
2018-04-15T06:39:32.816Z,13.18
2018-04-15T06:40:33.004Z,13.31
2018-04-15T06:41:33.183Z,13.52
2018-04-15T06:42:33.354Z,13.59
2018-04-15T06:43:33.552Z,13.57
2018-04-15T06:44:33.728Z,13.86
2018-04-15T06:45:33.868Z,13.87
2018-04-15T06:46:34.033Z,13.95
2018-04-15T06:47:34.168Z,14.07
2018-04-15T06:48:34.349Z,14.26
2018-04-15T06:49:34.481Z,14.32
2018-04-15T06:50:34.675Z,14.54
2018-04-15T06:51:34.815Z,14.50
2018-04-15T06:52:34.994Z,14.65
2018-04-15T06:53:35.199Z,14.53
2018-04-15T06:54:35.278Z,14.66
2018-04-15T06:55:35.490Z,14.69
2018-04-15T06:56:35.653Z,14.73
2018-04-15T06:57:35.829Z,14.79
2018-04-15T06:58:35.982Z,14.78
2018-04-15T06:59:36.103Z,14.78
2018-04-15T07:00:36.261Z,14.88
2018-04-15T07:01:36.585Z,14.82
2018-04-15T07:02:36.672Z,14.81
2018-04-15T07:03:36.771Z,14.86
2018-04-15T07:04:36.997Z,14.86
2018-04-15T07:05:37.128Z,14.86
2018-04-15T07:06:37.251Z,14.85
2018-04-15T07:07:37.414Z,14.94
2018-04-15T07:08:37.615Z,14.70
2018-04-15T07:09:37.806Z,14.53
2018-04-15T07:10:37.893Z,14.36
2018-04-15T07:11:38.064Z,14.12
2018-04-15T07:12:38.192Z,14.10
2018-04-15T07:13:38.446Z,13.81
2018-04-15T07:14:38.609Z,13.87
2018-04-15T07:15:38.790Z,13.65
2018-04-15T07:16:38.917Z,13.56
2018-04-15T07:17:39.133Z,13.63
2018-04-15T07:18:39.256Z,13.50
2018-04-15T07:19:39.418Z,13.50
2018-04-15T07:20:39.604Z,13.59
2018-04-15T07:21:39.774Z,13.60
2018-04-15T07:22:39.887Z,13.60
2018-04-15T07:23:40.067Z,13.68
2018-04-15T07:24:40.190Z,13.70
2018-04-15T07:25:40.352Z,13.79
2018-04-15T07:26:40.562Z,13.65
2018-04-15T07:27:40.698Z,13.68
2018-04-15T07:28:40.947Z,13.74
2018-04-15T07:29:41.074Z,13.86
2018-04-15T07:30:41.186Z,13.87
2018-04-15T07:31:41.364Z,13.97
2018-04-15T07:32:41.527Z,14.08
2018-04-15T07:33:41.740Z,14.12
2018-04-15T07:34:41.830Z,14.26
2018-04-15T07:35:42.041Z,14.15
2018-04-15T07:36:42.218Z,14.18
2018-04-15T07:37:42.357Z,14.30
2018-04-15T07:38:42.582Z,14.35
2018-04-15T07:39:42.740Z,14.45
2018-04-15T07:40:42.900Z,14.54
2018-04-15T07:41:43.058Z,14.53
2018-04-15T07:42:43.180Z,14.54
2018-04-15T07:43:43.417Z,14.62
2018-04-15T07:44:43.572Z,14.59
2018-04-15T07:45:43.643Z,14.79
2018-04-15T07:46:43.889Z,14.88
2018-04-15T07:47:44.028Z,15.03
2018-04-15T07:48:44.161Z,15.09
2018-04-15T07:49:44.389Z,15.07
2018-04-15T07:50:44.510Z,15.22
2018-04-15T07:51:44.704Z,15.35
2018-04-15T07:52:44.801Z,15.44
2018-04-15T07:53:44.995Z,15.57
2018-04-15T07:54:45.174Z,15.64
2018-04-15T07:55:45.308Z,15.65
2018-04-15T07:56:45.539Z,15.49
2018-04-15T07:57:45.729Z,15.42
2018-04-15T07:58:45.855Z,15.46
2018-04-15T07:59:46.035Z,15.40
2018-04-15T08:00:46.131Z,15.24
2018-04-15T08:01:46.251Z,15.33
2018-04-15T08:02:46.487Z,15.28
2018-04-15T08:03:46.636Z,15.39
2018-04-15T08:04:46.799Z,15.43
2018-04-15T08:05:46.927Z,15.47
2018-04-15T08:06:47.117Z,15.57
2018-04-15T08:07:47.375Z,15.64
2018-04-15T08:08:47.399Z,15.61
2018-04-15T08:09:47.601Z,15.64
2018-04-15T08:10:47.745Z,15.42
2018-04-15T08:11:47.990Z,15.42
2018-04-15T08:12:48.094Z,15.36
2018-04-15T08:13:48.258Z,15.17
2018-04-15T08:14:48.381Z,15.21
2018-04-15T08:15:48.552Z,15.11
2018-04-15T08:16:48.686Z,15.15
2018-04-15T08:17:48.869Z,15.19
2018-04-15T08:18:49.045Z,15.18
2018-04-15T08:19:49.198Z,15.22
2018-04-15T08:20:49.324Z,15.33
2018-04-15T08:21:49.539Z,15.47
2018-04-15T08:22:49.781Z,15.54
2018-04-15T08:23:49.851Z,15.61
2018-04-15T08:24:50.047Z,15.65
2018-04-15T08:25:50.229Z,15.70
2018-04-15T08:26:50.429Z,15.75
2018-04-15T08:27:50.591Z,15.76
2018-04-15T08:28:50.795Z,15.72
2018-04-15T08:29:50.921Z,15.73
2018-04-15T08:30:51.050Z,15.77
2018-04-15T08:31:51.299Z,15.83
2018-04-15T08:32:51.450Z,15.98
2018-04-15T08:33:51.579Z,16.05
2018-04-15T08:34:51.744Z,16.12
2018-04-15T08:35:52.041Z,16.23
2018-04-15T08:36:52.149Z,16.42
2018-04-15T08:37:52.282Z,16.32
2018-04-15T08:38:52.383Z,16.15
2018-04-15T08:39:52.572Z,16.23
2018-04-15T08:40:52.769Z,16.36
2018-04-15T08:41:52.908Z,16.53
2018-04-15T08:42:53.100Z,16.86
2018-04-15T08:43:53.246Z,17.23
2018-04-15T08:44:53.381Z,17.54
2018-04-15T08:45:53.538Z,17.86
2018-04-15T08:46:53.748Z,18.34
2018-04-15T08:47:53.900Z,18.58
2018-04-15T08:48:54.008Z,19.12
2018-04-15T08:49:54.219Z,19.49
2018-04-15T08:50:54.396Z,19.79
2018-04-15T08:51:54.579Z,20.03
2018-04-15T08:52:54.725Z,20.19
2018-04-15T08:53:55.029Z,20.40
2018-04-15T08:54:55.132Z,20.87
2018-04-15T08:55:55.279Z,21.46
2018-04-15T08:56:55.388Z,21.88
2018-04-15T08:57:55.603Z,22.30
2018-04-15T08:58:55.784Z,22.55
2018-04-15T08:59:55.930Z,22.84
2018-04-15T09:00:56.165Z,22.65
2018-04-15T09:01:56.287Z,22.72
2018-04-15T09:02:56.421Z,22.63
2018-04-15T09:03:56.612Z,22.63
2018-04-15T09:04:56.772Z,22.66
2018-04-15T09:05:56.935Z,22.94
2018-04-15T09:06:57.105Z,23.34
2018-04-15T09:07:57.271Z,23.32
2018-04-15T09:08:57.430Z,23.36
2018-04-15T09:09:58.475Z,23.51
2018-04-15T09:10:57.792Z,23.68
2018-04-15T09:11:58.025Z,23.96
2018-04-15T09:12:58.148Z,23.98
2018-04-15T09:13:58.377Z,24.21
2018-04-15T09:14:58.573Z,24.48
2018-04-15T09:15:58.766Z,24.81
2018-04-15T09:16:58.851Z,24.74
2018-04-15T09:17:59.022Z,24.89
2018-04-15T09:18:59.289Z,24.81
2018-04-15T09:19:59.487Z,24.92
2018-04-15T09:20:59.534Z,24.91
2018-04-15T09:21:59.804Z,24.68
2018-04-15T09:22:59.966Z,24.78
2018-04-15T09:24:00.091Z,25.04
2018-04-15T09:25:00.241Z,24.86
2018-04-15T09:26:00.463Z,25.11
2018-04-15T09:27:00.580Z,24.77
2018-04-15T09:28:00.791Z,24.50
2018-04-15T09:29:01.003Z,24.48
2018-04-15T09:30:01.137Z,24.48
2018-04-15T09:31:01.301Z,24.39
2018-04-15T09:32:01.509Z,24.38
2018-04-15T09:33:01.693Z,24.03
2018-04-15T09:34:01.792Z,24.58
2018-04-15T09:35:01.971Z,25.28
2018-04-15T09:36:02.122Z,25.93
2018-04-15T09:37:02.366Z,26.52
2018-04-15T09:38:02.528Z,27.15
2018-04-15T09:39:02.702Z,27.70
2018-04-15T09:40:02.886Z,28.29
2018-04-15T09:41:03.061Z,28.94
2018-04-15T09:42:03.252Z,29.35
2018-04-15T09:43:03.373Z,29.73
2018-04-15T09:44:03.523Z,29.47
2018-04-15T09:45:03.706Z,30.10
2018-04-15T09:46:03.994Z,30.05
2018-04-15T09:47:04.015Z,30.28
2018-04-15T09:48:04.296Z,30.62
2018-04-15T09:49:04.417Z,31.05
2018-04-15T09:50:04.666Z,31.00
2018-04-15T09:51:04.794Z,31.22
2018-04-15T09:52:04.974Z,31.14
2018-04-15T09:53:05.118Z,30.70
2018-04-15T09:54:05.328Z,31.02
2018-04-15T09:55:05.500Z,31.61
2018-04-15T09:56:05.664Z,32.08
2018-04-15T09:57:05.842Z,32.75
2018-04-15T09:58:05.946Z,32.82
2018-04-15T09:59:06.144Z,33.02
2018-04-15T10:00:06.310Z,33.34
2018-04-15T10:01:06.531Z,33.42
2018-04-15T10:02:06.675Z,33.43
2018-04-15T10:03:06.867Z,32.15
2018-04-15T10:04:07.158Z,31.74
2018-04-15T10:05:07.300Z,31.85
2018-04-15T10:06:07.433Z,31.78
2018-04-15T10:07:07.643Z,31.56
2018-04-15T10:08:07.797Z,31.59
2018-04-15T10:09:07.987Z,32.03
2018-04-15T10:10:08.197Z,31.89
2018-04-15T10:11:08.391Z,31.74
2018-04-15T10:12:08.483Z,32.04
2018-04-15T10:13:08.755Z,31.89
2018-04-15T10:14:09.001Z,31.80
2018-04-15T10:15:09.085Z,31.62
2018-04-15T10:16:09.231Z,32.18
2018-04-15T10:17:09.456Z,32.27
2018-04-15T10:18:09.641Z,32.07
2018-04-15T10:19:09.829Z,32.11
2018-04-15T10:20:10.094Z,31.78
2018-04-15T10:21:10.546Z,31.87
2018-04-15T10:22:10.383Z,32.33
2018-04-15T10:23:10.596Z,32.43
2018-04-15T10:24:10.718Z,32.63
2018-04-15T10:25:10.874Z,32.27
2018-04-15T10:26:11.114Z,32.16
2018-04-15T10:27:11.271Z,31.05
2018-04-15T10:28:11.377Z,30.69
2018-04-15T10:29:11.565Z,30.47
2018-04-15T10:30:11.799Z,30.47
2018-04-15T10:31:12.489Z,29.76
2018-04-15T10:32:12.209Z,29.65
2018-04-15T10:33:12.429Z,28.67
2018-04-15T10:34:12.616Z,29.19
2018-04-15T10:35:12.824Z,29.10
2018-04-15T10:36:12.990Z,29.53
2018-04-15T10:37:13.150Z,29.32
2018-04-15T10:38:13.365Z,29.29
2018-04-15T10:39:13.562Z,29.22
2018-04-15T10:40:13.729Z,29.39
2018-04-15T10:41:13.873Z,29.94
2018-04-15T10:42:14.120Z,30.34
2018-04-15T10:43:14.300Z,30.50
2018-04-15T10:44:14.480Z,30.65
2018-04-15T10:45:14.614Z,31.34
2018-04-15T10:46:14.790Z,31.73
2018-04-15T10:47:15.196Z,31.89
2018-04-15T10:48:15.074Z,32.18
2018-04-15T10:49:15.305Z,32.22
2018-04-15T10:50:15.456Z,32.71
2018-04-15T10:51:15.659Z,32.83
2018-04-15T10:52:15.830Z,32.71
2018-04-15T10:53:16.032Z,33.00
2018-04-15T10:54:16.122Z,33.17
2018-04-15T10:55:16.326Z,33.40
2018-04-15T10:56:16.523Z,32.45
2018-04-15T10:57:16.665Z,32.15
2018-04-15T10:58:16.903Z,31.85
2018-04-15T10:59:17.151Z,31.58
2018-04-15T11:00:17.321Z,31.69
2018-04-15T11:01:17.517Z,31.71
2018-04-15T11:02:17.677Z,32.11
2018-04-15T11:03:17.871Z,32.59
2018-04-15T11:04:18.027Z,33.14
2018-04-15T11:05:18.205Z,33.20
2018-04-15T11:06:18.380Z,33.68
2018-04-15T11:07:18.556Z,33.80
2018-04-15T11:08:18.755Z,33.61
2018-04-15T11:09:18.937Z,33.55
2018-04-15T11:10:19.066Z,33.14
2018-04-15T11:11:19.269Z,33.14
2018-04-15T11:12:19.410Z,32.83
2018-04-15T11:13:19.556Z,32.38
2018-04-15T11:14:19.777Z,32.33
2018-04-15T11:15:20.020Z,32.60
2018-04-15T11:16:20.168Z,32.83
2018-04-15T11:17:20.302Z,32.93
2018-04-15T11:18:20.475Z,33.08
2018-04-15T11:19:20.629Z,33.52
2018-04-15T11:20:20.857Z,33.92
2018-04-15T11:21:21.030Z,33.98
2018-04-15T11:22:21.158Z,34.14
2018-04-15T11:23:21.676Z,34.48
2018-04-15T11:24:21.634Z,33.52
2018-04-15T11:25:21.824Z,31.73
2018-04-15T11:26:21.964Z,30.39
2018-04-15T11:27:22.217Z,29.66
2018-04-15T11:28:22.363Z,29.27
2018-04-15T11:29:22.552Z,29.38
2018-04-15T11:30:22.684Z,29.47
2018-04-15T11:31:22.931Z,29.35
2018-04-15T11:32:23.084Z,28.25
2018-04-15T11:33:23.263Z,27.35
2018-04-15T11:34:23.368Z,26.90
2018-04-15T11:35:23.584Z,27.18
2018-04-15T11:36:23.803Z,26.88
2018-04-15T11:37:24.012Z,26.85
2018-04-15T11:38:24.224Z,26.22
2018-04-15T11:39:24.335Z,26.55
2018-04-15T11:40:24.595Z,26.52
2018-04-15T11:41:24.734Z,26.37
2018-04-15T11:42:24.917Z,26.74
2018-04-15T11:43:25.127Z,26.78
2018-04-15T11:44:25.379Z,26.75
2018-04-15T11:45:25.490Z,26.75
2018-04-15T11:46:25.587Z,25.99
2018-04-15T11:47:25.868Z,25.53
2018-04-15T11:48:25.985Z,25.78
2018-04-15T11:49:26.198Z,26.07
2018-04-15T11:50:26.332Z,26.31
2018-04-15T11:51:26.580Z,26.62
2018-04-15T11:52:26.688Z,27.11
2018-04-15T11:53:26.840Z,27.64
2018-04-15T11:54:27.037Z,27.96
2018-04-15T11:55:27.265Z,28.37
2018-04-15T11:56:27.444Z,28.67
2018-04-15T11:57:27.583Z,29.27
2018-04-15T11:58:27.807Z,29.29
2018-04-15T11:59:27.991Z,29.51
2018-04-15T12:00:28.085Z,30.65
2018-04-15T12:01:28.364Z,31.46
2018-04-15T12:02:28.529Z,32.40
2018-04-15T12:03:28.665Z,33.14
2018-04-15T12:04:28.834Z,33.96
2018-04-15T12:05:29.008Z,34.61
2018-04-15T12:06:29.142Z,35.33
2018-04-15T12:07:29.408Z,35.88
2018-04-15T12:08:29.512Z,36.05
2018-04-15T12:09:29.736Z,36.40
2018-04-15T12:10:29.888Z,36.46
2018-04-15T12:11:30.070Z,36.77
2018-04-15T12:12:30.260Z,36.93
2018-04-15T12:13:30.445Z,37.02
2018-04-15T12:14:30.690Z,36.36
2018-04-15T12:15:30.813Z,36.16
2018-04-15T12:16:31.070Z,36.25
2018-04-15T12:17:31.198Z,36.02
2018-04-15T12:18:31.359Z,36.08
2018-04-15T12:19:31.560Z,35.89
2018-04-15T12:20:31.735Z,34.86
2018-04-15T12:21:31.931Z,35.29
2018-04-15T12:22:32.091Z,34.52
2018-04-15T12:23:32.322Z,33.52
2018-04-15T12:24:32.502Z,32.92
2018-04-15T12:25:32.646Z,33.27
2018-04-15T12:26:32.823Z,33.62
2018-04-15T12:27:33.050Z,34.38
2018-04-15T12:28:33.201Z,35.12
2018-04-15T12:29:33.457Z,35.98
2018-04-15T12:30:33.661Z,36.42
2018-04-15T12:31:33.836Z,37.03
2018-04-15T12:32:33.981Z,37.72
2018-04-15T12:33:34.118Z,37.89
2018-04-15T12:34:34.308Z,38.73
2018-04-15T12:35:34.518Z,39.34
2018-04-15T12:36:34.780Z,38.46
2018-04-15T12:37:34.913Z,36.77
2018-04-15T12:38:35.039Z,35.78
2018-04-15T12:39:35.304Z,35.74
2018-04-15T12:40:35.447Z,35.36
2018-04-15T12:41:35.651Z,35.70
2018-04-15T12:42:35.772Z,35.33
2018-04-15T12:43:35.962Z,35.22
2018-04-15T12:44:36.154Z,34.30
2018-04-15T12:45:36.332Z,33.95
2018-04-15T12:46:36.564Z,32.41
2018-04-15T12:47:36.642Z,31.49
2018-04-15T12:48:36.982Z,30.69
2018-04-15T12:49:37.096Z,30.10
2018-04-15T12:50:37.351Z,30.25
2018-04-15T12:51:37.541Z,30.83
2018-04-15T12:52:37.625Z,30.47
2018-04-15T12:53:37.825Z,29.94
2018-04-15T12:54:37.959Z,30.28
2018-04-15T12:55:38.213Z,31.51
2018-04-15T12:56:38.365Z,32.74
2018-04-15T12:57:38.482Z,34.11
2018-04-15T12:58:38.726Z,34.62
